Time;durP1;ratioP1;P1;durP2;ratioP2;P2;SDS_P1;SDS_P2;PMS_P1;PMS_P2;Temp;Humidity;BMP_temperature;BMP_pressure;BME280_temperature;BME280_humidity;BME280_pressure;Samples;Min_cycle;Max_cycle;Signal;HPM_P1;HPM_P2
2022/07/09 00:00:30;;;;;;;9.18;5.28;;;16.90;99.90;;;;;;4998990;28;20030;-77
2022/07/09 00:02:56;;;;;;;8.82;5.20;;;16.90;99.90;;;;;;5021681;28;20440;-77
2022/07/09 00:05:21;;;;;;;9.18;5.18;;;16.90;99.90;;;;;;5024041;28;20041;-77
2022/07/09 00:07:47;;;;;;;6.90;4.97;;;16.80;99.90;;;;;;5026623;28;20072;-77
2022/07/09 00:10:13;;;;;;;6.85;4.30;;;16.80;99.90;;;;;;5026962;28;20692;-77
2022/07/09 00:12:39;;;;;;;10.57;5.10;;;16.80;99.90;;;;;;5019755;28;20441;-76
2022/07/09 00:15:05;;;;;;;10.98;4.78;;;16.80;99.90;;;;;;5019054;28;20038;-76
2022/07/09 00:17:31;;;;;;;7.00;4.90;;;16.80;99.90;;;;;;5020278;28;20229;-75
2022/07/09 00:19:56;;;;;;;8.05;4.70;;;16.80;99.90;;;;;;5025254;28;20407;-77
2022/07/09 00:22:22;;;;;;;7.03;4.93;;;16.80;99.90;;;;;;5024619;28;20546;-77
2022/07/09 00:24:48;;;;;;;8.65;4.97;;;16.80;99.90;;;;;;5021172;28;20049;-78
2022/07/09 00:27:14;;;;;;;6.15;4.18;;;16.80;99.90;;;;;;5026478;28;20030;-78
2022/07/09 00:29:40;;;;;;;8.40;4.45;;;16.90;99.90;;;;;;5003015;28;20042;-76
2022/07/09 00:32:06;;;;;;;7.43;4.20;;;16.90;99.90;;;;;;5024383;28;20859;-76
2022/07/09 00:34:32;;;;;;;7.22;3.95;;;16.90;99.90;;;;;;5025056;28;20120;-76
2022/07/09 00:36:57;;;;;;;8.02;4.43;;;16.90;99.90;;;;;;5016409;28;20057;-78
2022/07/09 00:39:23;;;;;;;7.72;4.28;;;16.90;99.90;;;;;;5022207;28;20107;-77
2022/07/09 00:41:49;;;;;;;6.22;3.97;;;16.90;99.90;;;;;;5024153;28;20029;-78
2022/07/09 00:44:14;;;;;;;6.25;4.45;;;16.90;99.90;;;;;;5023401;28;20044;-76
2022/07/09 00:46:40;;;;;;;8.18;4.43;;;16.90;99.90;;;;;;5024711;28;20029;-74
2022/07/09 00:49:06;;;;;;;7.43;4.75;;;16.90;99.90;;;;;;5019105;28;20026;-74
2022/07/09 00:51:32;;;;;;;7.72;4.15;;;16.90;99.90;;;;;;5025232;28;20026;-77
2022/07/09 00:53:59;;;;;;;9.25;5.32;;;16.90;99.90;;;;;;5005089;28;20392;-76
2022/07/09 00:56:27;;;;;;;7.70;5.18;;;16.90;99.90;;;;;;5020759;28;20091;-77
2022/07/09 00:58:53;;;;;;;7.45;4.88;;;16.90;99.90;;;;;;5021795;28;20030;-75
2022/07/09 01:01:19;;;;;;;10.13;4.53;;;16.90;99.90;;;;;;5025600;28;20426;-76
2022/07/09 01:03:45;;;;;;;9.13;4.90;;;16.90;99.90;;;;;;5022828;28;20037;-75
2022/07/09 01:06:10;;;;;;;10.73;5.53;;;16.80;99.90;;;;;;5021435;28;20132;-75
2022/07/09 01:08:37;;;;;;;8.15;4.95;;;16.80;99.90;;;;;;5015938;28;20124;-74
2022/07/09 01:11:03;;;;;;;8.57;4.85;;;16.70;99.90;;;;;;5020660;28;20067;-74
2022/07/09 01:13:29;;;;;;;8.07;4.97;;;16.70;99.90;;;;;;5022730;28;22056;-75
2022/07/09 01:15:54;;;;;;;7.53;5.38;;;16.60;99.90;;;;;;5015519;28;20099;-75
2022/07/09 01:18:20;;;;;;;7.45;4.50;;;16.60;99.90;;;;;;5020227;28;20124;-75
2022/07/09 01:20:46;;;;;;;7.40;5.00;;;16.50;99.90;;;;;;5019778;28;20037;-76
2022/07/09 01:23:11;;;;;;;9.10;4.75;;;16.50;99.90;;;;;;5020441;28;20026;-77
2022/07/09 01:25:39;;;;;;;9.70;4.80;;;16.40;99.90;;;;;;5021291;28;20129;-77
2022/07/09 01:28:06;;;;;;;6.80;4.72;;;16.30;99.90;;;;;;5021206;28;20029;-77
2022/07/09 01:30:33;;;;;;;8.27;4.60;;;16.30;99.90;;;;;;4998406;28;20103;-76
2022/07/09 01:33:00;;;;;;;7.95;4.65;;;16.30;99.90;;;;;;5005398;28;20032;-76
2022/07/09 01:35:26;;;;;;;7.90;5.00;;;16.40;99.90;;;;;;5009111;28;20037;-76
2022/07/09 01:37:52;;;;;;;8.70;4.90;;;16.40;99.90;;;;;;5019563;28;20717;-77
2022/07/09 01:40:17;;;;;;;7.55;4.28;;;16.40;99.90;;;;;;5023664;28;20036;-77
2022/07/09 01:42:43;;;;;;;7.72;4.20;;;16.40;99.90;;;;;;5024435;28;20365;-78
2022/07/09 01:45:09;;;;;;;6.97;4.65;;;16.50;99.90;;;;;;5002241;28;20057;-76
2022/07/09 01:47:35;;;;;;;6.18;4.40;;;16.50;99.90;;;;;;5019522;28;20038;-78
2022/07/09 01:50:01;;;;;;;6.70;4.90;;;16.50;99.90;;;;;;5003938;28;20033;-77
2022/07/09 01:52:29;;;;;;;8.25;4.75;;;16.60;99.90;;;;;;4990844;28;20034;-77
2022/07/09 01:54:55;;;;;;;7.95;4.38;;;16.60;99.90;;;;;;5016540;28;20037;-76
2022/07/09 01:57:20;;;;;;;9.00;5.00;;;16.60;99.90;;;;;;5011555;28;20072;-76
2022/07/09 01:59:46;;;;;;;8.57;4.82;;;16.70;99.90;;;;;;5011844;28;20041;-75
2022/07/09 02:02:12;;;;;;;5.80;4.35;;;16.60;99.90;;;;;;5014385;28;20061;-78
2022/07/09 02:04:38;;;;;;;5.60;4.18;;;16.70;99.90;;;;;;5009288;28;20057;-73
2022/07/09 02:07:04;;;;;;;6.93;4.25;;;16.70;99.90;;;;;;5016171;28;20389;-77
2022/07/09 02:09:29;;;;;;;10.25;4.55;;;16.70;99.90;;;;;;5001344;28;20439;-78
2022/07/09 02:11:55;;;;;;;8.75;4.40;;;16.60;99.90;;;;;;5015596;28;20090;-77
2022/07/09 02:14:21;;;;;;;6.85;4.63;;;16.60;99.90;;;;;;5022635;28;20038;-77
2022/07/09 02:16:47;;;;;;;6.03;4.22;;;16.60;99.90;;;;;;5003592;28;20033;-76
2022/07/09 02:19:14;;;;;;;6.80;4.40;;;16.70;99.90;;;;;;5022954;28;20032;-78
2022/07/09 02:21:39;;;;;;;7.22;4.00;;;16.60;99.90;;;;;;5012278;28;20025;-78
2022/07/09 02:24:06;;;;;;;7.05;4.20;;;16.60;99.90;;;;;;5012513;28;20382;-78
2022/07/09 02:26:32;;;;;;;6.70;3.90;;;16.60;99.90;;;;;;5020139;28;20121;-77
2022/07/09 02:28:58;;;;;;;6.90;3.83;;;16.60;99.90;;;;;;5014145;28;20273;-77
2022/07/09 02:31:24;;;;;;;5.22;3.55;;;16.60;99.90;;;;;;5021741;28;20543;-78
2022/07/09 02:33:50;;;;;;;6.80;4.22;;;16.60;99.90;;;;;;5014940;28;20069;-76
2022/07/09 02:36:15;;;;;;;7.60;4.00;;;16.50;99.90;;;;;;5023914;28;20172;-78
2022/07/09 02:38:41;;;;;;;8.95;3.83;;;16.60;99.90;;;;;;5024340;28;20033;-76
2022/07/09 02:41:07;;;;;;;6.45;3.97;;;16.50;99.90;;;;;;5001242;28;20072;-77
2022/07/09 02:43:32;;;;;;;6.05;3.60;;;16.50;99.90;;;;;;5022015;28;20595;-75
2022/07/09 02:45:58;;;;;;;5.63;3.80;;;16.50;99.90;;;;;;5024852;28;20125;-77
2022/07/09 02:48:27;;;;;;;7.22;4.28;;;16.50;99.90;;;;;;5006801;28;20033;-77
2022/07/09 02:50:53;;;;;;;8.27;4.03;;;16.40;99.90;;;;;;5018123;28;20041;-76
2022/07/09 02:53:19;;;;;;;5.60;3.60;;;16.40;99.90;;;;;;5022960;28;20036;-77
2022/07/09 02:55:45;;;;;;;5.50;3.30;;;16.40;99.90;;;;;;5021137;28;20111;-76
2022/07/09 02:58:11;;;;;;;8.88;3.67;;;16.40;99.90;;;;;;4997392;28;20030;-75
2022/07/09 03:00:40;;;;;;;5.95;3.60;;;16.40;99.90;;;;;;5016561;28;20753;-76
2022/07/09 03:03:07;;;;;;;5.57;3.60;;;16.40;99.90;;;;;;5017315;28;20373;-76
2022/07/09 03:05:33;;;;;;;7.50;4.18;;;16.40;99.90;;;;;;5024220;28;20071;-74
2022/07/09 03:07:59;;;;;;;6.47;3.83;;;16.40;99.90;;;;;;5024691;28;20187;-78
2022/07/09 03:10:25;;;;;;;6.57;3.60;;;16.30;99.90;;;;;;5017551;28;20109;-76
2022/07/09 03:12:51;;;;;;;5.07;3.25;;;16.30;99.90;;;;;;5013309;28;20037;-78
2022/07/09 03:15:17;;;;;;;6.82;3.40;;;16.30;99.90;;;;;;5023950;28;20112;-77
2022/07/09 03:17:47;;;;;;;6.45;4.15;;;16.30;99.90;;;;;;5016423;28;20026;-76
2022/07/09 03:20:13;;;;;;;5.15;3.70;;;16.20;99.90;;;;;;5010614;28;20061;-76
2022/07/09 03:22:40;;;;;;;7.25;4.25;;;16.10;99.90;;;;;;5022191;28;20036;-74
2022/07/09 03:25:06;;;;;;;6.70;3.88;;;16.00;99.90;;;;;;5017496;28;20049;-76
2022/07/09 03:27:33;;;;;;;7.97;4.22;;;16.00;99.90;;;;;;5005202;28;20026;-79
2022/07/09 03:29:59;;;;;;;6.35;3.88;;;16.00;99.90;;;;;;5019888;28;20545;-77
2022/07/09 03:32:25;;;;;;;6.32;3.92;;;16.00;99.90;;;;;;5005046;28;20054;-77
2022/07/09 03:34:52;;;;;;;7.22;4.10;;;15.90;99.90;;;;;;5025512;28;20064;-75
2022/07/09 03:37:21;;;;;;;6.78;3.92;;;15.80;99.90;;;;;;5015449;28;20578;-75
2022/07/09 03:39:47;;;;;;;5.88;3.63;;;15.80;99.90;;;;;;5020018;28;20030;-76
2022/07/09 03:42:13;;;;;;;5.53;3.55;;;15.70;99.90;;;;;;5032012;28;20111;-75
2022/07/09 03:44:39;;;;;;;8.02;3.70;;;15.70;99.90;;;;;;5017275;28;20041;-76
2022/07/09 03:47:06;;;;;;;7.65;4.38;;;15.70;99.90;;;;;;5007520;28;20029;-77
2022/07/09 03:49:31;;;;;;;6.43;3.75;;;15.80;99.90;;;;;;5028484;28;20056;-79
2022/07/09 03:51:58;;;;;;;8.77;4.05;;;15.80;99.90;;;;;;5021918;28;20064;-77
2022/07/09 03:54:23;;;;;;;5.85;3.88;;;15.80;99.90;;;;;;5025514;28;20029;-76
2022/07/09 03:56:49;;;;;;;7.22;4.00;;;15.80;99.90;;;;;;5010557;28;20060;-77
2022/07/09 03:59:16;;;;;;;7.15;3.85;;;15.80;99.90;;;;;;5023006;28;20030;-77
2022/07/09 04:01:41;;;;;;;5.40;3.60;;;15.80;99.90;;;;;;5018918;28;20757;-75
2022/07/09 04:04:07;;;;;;;8.48;4.00;;;15.80;99.90;;;;;;5006801;28;20061;-77
2022/07/09 04:06:33;;;;;;;6.07;3.63;;;15.90;99.90;;;;;;5003223;28;20042;-78
2022/07/09 04:09:03;;;;;;;5.95;3.17;;;15.80;99.90;;;;;;5015746;28;20382;-78
2022/07/09 04:11:30;;;;;;;5.47;3.40;;;15.90;99.90;;;;;;5017522;28;20091;-77
2022/07/09 04:13:56;;;;;;;6.38;3.75;;;15.80;99.90;;;;;;5023642;28;20033;-76
2022/07/09 04:16:21;;;;;;;5.60;3.40;;;15.80;99.90;;;;;;5011111;28;20040;-76
2022/07/09 04:18:47;;;;;;;6.43;3.40;;;15.90;99.90;;;;;;5023416;28;20040;-75
2022/07/09 04:21:13;;;;;;;6.85;3.47;;;15.80;99.90;;;;;;5015319;28;20677;-77
2022/07/09 04:23:38;;;;;;;6.18;3.30;;;15.80;99.90;;;;;;5013966;28;20461;-77
2022/07/09 04:26:04;;;;;;;6.50;3.45;;;15.80;99.90;;;;;;5018818;28;20038;-76
2022/07/09 04:28:30;;;;;;;6.70;3.08;;;15.80;99.90;;;;;;5004597;28;20454;-77
2022/07/09 04:30:56;;;;;;;8.70;3.20;;;15.80;99.90;;;;;;5013556;28;20068;-78
2022/07/09 04:33:21;;;;;;;6.13;3.28;;;15.80;99.90;;;;;;5021902;28;20037;-76
2022/07/09 04:35:47;;;;;;;5.85;3.60;;;15.80;99.90;;;;;;5018230;28;20088;-79
2022/07/09 04:38:13;;;;;;;6.55;3.10;;;15.80;99.90;;;;;;5020902;28;20381;-77
2022/07/09 04:40:39;;;;;;;5.43;3.03;;;15.80;99.90;;;;;;5023084;28;20563;-77
2022/07/09 04:43:06;;;;;;;6.15;2.72;;;15.80;99.90;;;;;;5019260;28;20096;-76
2022/07/09 04:45:32;;;;;;;4.28;2.63;;;15.90;99.90;;;;;;5025332;28;20033;-75
2022/07/09 04:47:58;;;;;;;5.35;2.83;;;15.90;99.90;;;;;;5027558;28;20499;-77
2022/07/09 04:50:25;;;;;;;5.22;2.60;;;15.90;99.90;;;;;;5021849;28;20041;-74
2022/07/09 04:52:50;;;;;;;5.10;3.00;;;15.90;99.90;;;;;;5007471;28;20070;-77
2022/07/09 04:55:16;;;;;;;4.60;2.22;;;15.90;99.90;;;;;;5014116;28;20037;-78
2022/07/09 04:57:43;;;;;;;4.50;2.60;;;16.00;99.90;;;;;;5029291;28;20468;-76
2022/07/09 05:00:10;;;;;;;5.30;2.42;;;16.00;99.90;;;;;;5017725;28;20650;-76
2022/07/09 05:02:39;;;;;;;8.32;2.85;;;16.00;99.90;;;;;;5016750;28;20053;-75
2022/07/09 05:05:06;;;;;;;5.25;2.70;;;16.00;99.90;;;;;;5018631;28;20042;-75
2022/07/09 05:07:32;;;;;;;4.35;2.50;;;16.10;99.90;;;;;;5020239;28;20430;-77
2022/07/09 05:10:02;;;;;;;5.03;2.58;;;16.20;99.90;;;;;;5013476;28;20084;-76
2022/07/09 05:12:29;;;;;;;5.40;2.55;;;16.20;99.90;;;;;;5013526;28;20025;-77
2022/07/09 05:14:56;;;;;;;5.15;2.35;;;16.30;99.90;;;;;;5023950;28;20411;-76
2022/07/09 05:17:22;;;;;;;5.63;2.25;;;16.30;99.90;;;;;;5029238;28;20029;-79
2022/07/09 05:19:48;;;;;;;5.68;2.58;;;16.30;99.90;;;;;;5026015;28;20473;-77
2022/07/09 05:22:14;;;;;;;5.80;2.42;;;16.30;99.90;;;;;;5026420;28;20117;-80
2022/07/09 05:24:40;;;;;;;5.78;2.53;;;16.30;99.90;;;;;;5022622;28;20083;-78
2022/07/09 05:27:06;;;;;;;4.90;2.28;;;16.40;99.90;;;;;;5024578;28;20044;-76
2022/07/09 05:29:32;;;;;;;5.03;2.63;;;16.40;99.90;;;;;;5024090;28;20033;-78
2022/07/09 05:31:58;;;;;;;4.20;2.60;;;16.40;99.90;;;;;;5011566;28;20152;-77
2022/07/09 05:34:24;;;;;;;3.75;1.92;;;16.50;99.90;;;;;;5029071;28;20465;-77
2022/07/09 05:36:54;;;;;;;6.15;2.78;;;16.50;99.90;;;;;;5023709;28;20030;-77
2022/07/09 05:39:20;;;;;;;5.53;2.47;;;16.50;99.90;;;;;;5023030;28;20033;-76
2022/07/09 05:41:46;;;;;;;4.78;2.13;;;16.60;99.90;;;;;;5016725;28;20146;-75
2022/07/09 05:44:12;;;;;;;4.35;2.25;;;16.60;99.90;;;;;;5020476;28;20116;-76
2022/07/09 05:46:37;;;;;;;4.50;2.40;;;16.60;99.90;;;;;;5019939;28;20030;-76
2022/07/09 05:49:03;;;;;;;3.60;2.13;;;16.70;99.90;;;;;;5008755;28;20038;-77
2022/07/09 05:51:29;;;;;;;4.95;2.25;;;16.70;99.90;;;;;;5006924;28;20037;-76
2022/07/09 05:53:54;;;;;;;4.32;2.20;;;16.70;99.90;;;;;;5007470;28;20396;-76
2022/07/09 05:56:20;;;;;;;3.83;2.38;;;16.70;99.90;;;;;;5012028;28;20034;-77
2022/07/09 05:58:46;;;;;;;4.90;2.58;;;16.80;99.90;;;;;;5020973;28;20041;-75
2022/07/09 06:01:13;;;;;;;5.07;2.17;;;16.80;99.90;;;;;;5008057;28;20033;-77
2022/07/09 06:03:39;;;;;;;4.90;2.10;;;16.80;99.90;;;;;;5009069;28;20044;-76
2022/07/09 06:06:05;;;;;;;3.75;2.25;;;16.90;99.90;;;;;;5005787;28;20033;-77
2022/07/09 06:08:33;;;;;;;4.43;2.55;;;16.90;99.90;;;;;;5018291;28;20836;-75
2022/07/09 06:10:59;;;;;;;3.75;2.00;;;17.00;99.90;;;;;;5015703;28;20037;-77
2022/07/09 06:13:25;;;;;;;5.65;2.45;;;17.00;99.90;;;;;;5009038;28;20468;-76
2022/07/09 06:15:51;;;;;;;4.07;2.30;;;17.00;99.90;;;;;;5017378;28;20034;-76
2022/07/09 06:18:17;;;;;;;4.80;2.67;;;17.10;99.90;;;;;;5016563;28;20064;-75
2022/07/09 06:20:42;;;;;;;3.78;2.45;;;17.20;99.90;;;;;;5008553;28;20077;-77
2022/07/09 06:23:08;;;;;;;4.15;2.15;;;17.20;99.90;;;;;;5003486;28;20061;-74
2022/07/09 06:25:34;;;;;;;4.07;2.35;;;17.30;99.90;;;;;;5011594;28;20034;-75
2022/07/09 06:28:00;;;;;;;4.30;2.20;;;17.30;99.90;;;;;;4992511;28;20045;-74
2022/07/09 06:30:25;;;;;;;4.43;2.13;;;17.40;99.90;;;;;;4999265;28;20040;-77
2022/07/09 06:32:51;;;;;;;3.65;2.08;;;17.50;99.90;;;;;;5014138;28;20029;-78
2022/07/09 06:35:18;;;;;;;5.40;2.47;;;17.60;99.90;;;;;;5015191;28;20042;-77
2022/07/09 06:37:44;;;;;;;4.03;2.00;;;17.70;99.90;;;;;;4991942;28;20040;-76
2022/07/09 06:40:10;;;;;;;6.50;2.17;;;17.80;99.90;;;;;;4989212;28;20026;-78
2022/07/09 06:42:35;;;;;;;3.78;1.85;;;17.90;99.90;;;;;;4991247;28;20030;-78
2022/07/09 06:45:01;;;;;;;3.28;1.90;;;18.00;99.90;;;;;;5008053;28;20045;-77
2022/07/09 06:47:27;;;;;;;2.85;1.77;;;18.10;99.90;;;;;;5010742;28;20036;-78
2022/07/09 06:49:52;;;;;;;4.82;2.00;;;18.20;99.90;;;;;;5008509;28;20038;-78
2022/07/09 06:52:18;;;;;;;4.63;2.00;;;18.20;99.90;;;;;;5010310;28;20033;-77
2022/07/09 06:54:44;;;;;;;4.95;1.88;;;18.30;99.90;;;;;;5010051;28;20140;-77
2022/07/09 06:57:10;;;;;;;3.50;2.00;;;18.40;99.90;;;;;;5011527;28;20104;-77
2022/07/09 06:59:36;;;;;;;3.75;1.63;;;18.50;99.90;;;;;;5014323;28;20401;-76
2022/07/09 07:02:02;;;;;;;5.57;1.83;;;18.60;99.90;;;;;;5009247;28;20472;-75
2022/07/09 07:04:27;;;;;;;2.05;1.55;;;18.80;99.90;;;;;;5011425;28;20040;-77
2022/07/09 07:06:53;;;;;;;2.90;1.60;;;18.90;99.90;;;;;;5024731;28;20062;-77
2022/07/09 07:09:21;;;;;;;3.33;1.65;;;19.00;99.90;;;;;;4999029;28;20488;-76
2022/07/09 07:11:48;;;;;;;4.47;1.60;;;19.10;99.90;;;;;;5012724;28;20018;-77
2022/07/09 07:14:15;;;;;;;1.98;1.45;;;19.30;99.90;;;;;;5020433;28;20439;-76
2022/07/09 07:16:41;;;;;;;2.38;1.20;;;19.40;99.90;;;;;;5008498;28;20031;-79
2022/07/09 07:19:06;;;;;;;3.08;1.50;;;19.50;99.90;;;;;;5006868;28;20423;-77
2022/07/09 07:21:32;;;;;;;2.30;1.30;;;19.60;99.90;;;;;;5022696;28;20029;-75
2022/07/09 07:23:58;;;;;;;4.47;1.40;;;19.90;99.90;;;;;;5014779;28;20049;-76
2022/07/09 07:26:23;;;;;;;2.85;1.38;;;20.00;99.90;;;;;;5008366;28;20530;-77
2022/07/09 07:28:49;;;;;;;1.88;1.23;;;20.20;99.90;;;;;;5006846;28;20041;-78
2022/07/09 07:31:15;;;;;;;2.83;1.20;;;20.40;99.90;;;;;;5004689;28;20085;-76
2022/07/09 07:33:41;;;;;;;2.75;1.40;;;20.50;99.90;;;;;;5006675;28;20089;-77
2022/07/09 07:36:08;;;;;;;2.22;1.25;;;20.60;99.90;;;;;;5007061;28;20624;-77
2022/07/09 07:38:34;;;;;;;1.98;1.00;;;20.70;99.90;;;;;;5006704;28;20028;-77
2022/07/09 07:41:00;;;;;;;2.45;1.20;;;20.70;99.90;;;;;;4990202;28;20037;-75
2022/07/09 07:43:26;;;;;;;1.65;1.10;;;20.80;99.90;;;;;;5006709;28;20037;-75
2022/07/09 07:45:51;;;;;;;2.70;1.35;;;20.80;99.90;;;;;;5012795;28;20073;-75
2022/07/09 07:48:17;;;;;;;1.90;1.10;;;20.90;99.90;;;;;;5012812;28;20774;-75
2022/07/09 07:50:43;;;;;;;2.55;1.20;;;21.00;99.90;;;;;;5005037;28;20037;-74
2022/07/09 07:53:08;;;;;;;2.50;1.30;;;21.00;99.90;;;;;;5002889;28;20031;-75
2022/07/09 07:55:34;;;;;;;4.07;1.40;;;20.90;99.90;;;;;;5002414;28;20746;-76
2022/07/09 07:58:00;;;;;;;2.50;1.23;;;20.90;99.90;;;;;;5004590;28;20037;-77
2022/07/09 08:00:26;;;;;;;3.08;1.33;;;20.90;99.90;;;;;;5004414;28;20040;-76
2022/07/09 08:02:51;;;;;;;3.13;1.30;;;20.80;99.90;;;;;;5003734;28;20034;-74
2022/07/09 08:05:17;;;;;;;2.15;1.27;;;20.70;99.90;;;;;;5003068;28;20044;-76
2022/07/09 08:07:43;;;;;;;3.10;1.58;;;20.70;99.90;;;;;;5005004;28;20033;-74
2022/07/09 08:10:09;;;;;;;3.30;1.30;;;20.60;99.90;;;;;;5002458;28;20045;-74
2022/07/09 08:12:35;;;;;;;2.45;1.40;;;20.60;99.90;;;;;;5001742;28;20037;-75
2022/07/09 08:15:01;;;;;;;1.92;1.25;;;20.50;99.90;;;;;;5004990;28;20037;-77
2022/07/09 08:17:27;;;;;;;2.78;1.23;;;20.60;99.90;;;;;;5007339;28;20821;-77
2022/07/09 08:19:52;;;;;;;2.60;1.40;;;20.80;99.90;;;;;;5004819;28;20033;-79
2022/07/09 08:22:18;;;;;;;1.65;1.00;;;20.90;99.90;;;;;;5007971;28;20029;-77
2022/07/09 08:24:44;;;;;;;1.58;1.00;;;21.10;99.90;;;;;;5009132;28;20038;-77
2022/07/09 08:27:09;;;;;;;3.00;1.20;;;21.10;99.90;;;;;;5007633;28;20030;-77
2022/07/09 08:29:35;;;;;;;2.83;1.10;;;21.20;99.90;;;;;;5009174;28;20057;-76
2022/07/09 08:32:02;;;;;;;3.08;1.15;;;21.10;99.90;;;;;;5007526;28;20491;-79
2022/07/09 08:34:27;;;;;;;2.28;1.27;;;21.10;99.90;;;;;;4987724;28;20057;-76
2022/07/09 08:36:53;;;;;;;2.80;1.60;;;21.10;99.90;;;;;;5008397;28;20061;-79
2022/07/09 08:39:19;;;;;;;3.28;1.50;;;21.10;99.90;;;;;;5006841;28;20030;-78
2022/07/09 08:41:44;;;;;;;2.85;1.30;;;21.00;99.90;;;;;;5010858;28;20037;-75
2022/07/09 08:44:11;;;;;;;4.28;1.40;;;21.00;99.90;;;;;;5020003;28;20033;-79
2022/07/09 08:46:38;;;;;;;1.98;1.20;;;20.90;99.90;;;;;;5018366;28;20084;-77
2022/07/09 08:49:03;;;;;;;1.73;1.15;;;20.90;99.90;;;;;;5011320;28;20069;-78
2022/07/09 08:51:30;;;;;;;2.22;1.00;;;20.90;99.90;;;;;;5005073;28;20081;-76
2022/07/09 08:53:56;;;;;;;2.10;1.00;;;20.90;99.90;;;;;;5001004;28;20041;-76
2022/07/09 08:56:22;;;;;;;2.10;1.00;;;21.00;99.90;;;;;;5002811;28;20053;-76
2022/07/09 08:58:48;;;;;;;1.83;1.20;;;21.00;99.90;;;;;;5003208;28;20030;-76
2022/07/09 09:01:16;;;;;;;1.83;1.08;;;20.90;99.90;;;;;;5022439;28;20033;-76
2022/07/09 09:03:43;;;;;;;2.22;1.30;;;20.90;99.90;;;;;;5007717;28;20121;-77
2022/07/09 09:06:11;;;;;;;2.67;0.98;;;21.00;99.90;;;;;;5009291;28;20037;-77
2022/07/09 09:08:41;;;;;;;2.70;1.20;;;21.00;99.90;;;;;;5006150;28;20037;-78
2022/07/09 09:11:13;;;;;;;2.92;1.10;;;21.00;99.90;;;;;;5007957;28;20540;-77
2022/07/09 09:13:46;;;;;;;2.15;0.88;;;21.00;99.90;;;;;;5005755;28;20061;-78
2022/07/09 09:16:16;;;;;;;2.05;0.80;;;21.00;99.90;;;;;;4991458;28;20033;-78
2022/07/09 09:18:44;;;;;;;1.85;0.80;;;21.00;99.90;;;;;;5005918;28;20029;-79
2022/07/09 09:21:10;;;;;;;1.48;0.70;;;21.00;99.90;;;;;;5008374;28;20034;-78
2022/07/09 09:23:47;;;;;;;1.75;0.70;;;21.20;99.90;;;;;;5003547;28;20038;-74
2022/07/09 09:26:17;;;;;;;1.67;0.80;;;21.40;99.90;;;;;;4987902;28;20543;-74
2022/07/09 09:29:03;;;;;;;1.60;0.77;;;21.50;99.90;;;;;;5004725;28;20181;-78
2022/07/09 09:31:35;;;;;;;1.35;0.85;;;21.50;99.90;;;;;;5003643;28;20108;-80
2022/07/09 09:34:11;;;;;;;1.67;0.90;;;21.50;99.90;;;;;;5009005;28;20033;-79
2022/07/09 09:36:47;;;;;;;1.70;1.00;;;21.50;99.90;;;;;;4989018;28;20041;-76
2022/07/09 09:39:24;;;;;;;2.53;0.90;;;21.50;99.90;;;;;;5009681;28;20443;-76
2022/07/09 09:41:55;;;;;;;1.98;0.80;;;21.60;99.90;;;;;;5002715;28;20046;-77
2022/07/09 09:44:26;;;;;;;1.38;0.73;;;21.70;99.60;;;;;;5004643;28;20025;-75
2022/07/09 09:46:53;;;;;;;1.33;0.80;;;21.70;99.80;;;;;;5004707;28;20045;-76
2022/07/09 09:49:21;;;;;;;2.55;0.80;;;21.80;99.80;;;;;;5005225;28;20057;-76
2022/07/09 09:52:07;;;;;;;1.33;0.80;;;21.70;99.50;;;;;;5009052;28;20026;-77
2022/07/09 09:54:46;;;;;;;1.17;0.70;;;21.60;99.90;;;;;;5010151;28;20138;-76
2022/07/09 09:57:19;;;;;;;2.05;1.10;;;21.50;99.90;;;;;;5007096;28;20072;-79
2022/07/09 09:59:45;;;;;;;1.95;1.10;;;21.50;99.90;;;;;;5008242;28;20088;-77
2022/07/09 10:02:12;;;;;;;1.70;0.95;;;21.40;99.90;;;;;;5007590;28;20026;-77
2022/07/09 10:04:43;;;;;;;1.63;0.82;;;21.40;99.90;;;;;;5007625;28;20030;-75
2022/07/09 10:07:12;;;;;;;2.00;1.00;;;21.40;99.70;;;;;;5002342;28;20137;-77
2022/07/09 10:09:38;;;;;;;1.40;0.93;;;21.40;99.60;;;;;;4993399;28;20037;-76
2022/07/09 10:12:04;;;;;;;1.38;0.80;;;21.40;99.80;;;;;;5017368;28;20029;-74
2022/07/09 10:14:31;;;;;;;2.38;1.00;;;21.40;99.90;;;;;;5017559;28;20400;-73
2022/07/09 10:17:08;;;;;;;1.88;0.93;;;21.40;99.90;;;;;;5002953;28;20532;-75
2022/07/09 10:19:34;;;;;;;2.67;1.00;;;21.40;99.90;;;;;;5004577;28;20117;-75
2022/07/09 10:22:00;;;;;;;3.17;1.00;;;21.50;99.90;;;;;;4993684;28;20551;-76
2022/07/09 10:24:31;;;;;;;1.55;1.00;;;21.50;99.60;;;;;;5007237;28;20200;-76
2022/07/09 10:27:12;;;;;;;2.25;1.00;;;21.50;99.90;;;;;;5005708;28;20834;-77
2022/07/09 10:29:59;;;;;;;2.20;0.90;;;21.60;99.40;;;;;;4991727;28;20034;-75
2022/07/09 10:32:30;;;;;;;1.50;0.90;;;21.60;99.80;;;;;;5004047;28;20128;-78
2022/07/09 10:34:59;;;;;;;1.83;1.08;;;21.60;99.80;;;;;;5008512;28;20026;-75
2022/07/09 10:37:44;;;;;;;2.42;1.05;;;21.60;99.20;;;;;;5011194;28;20068;-76
2022/07/09 10:40:18;;;;;;;1.88;1.02;;;21.50;99.60;;;;;;5005673;28;20108;-76
2022/07/09 10:42:45;;;;;;;2.33;1.10;;;21.40;99.70;;;;;;5008610;28;20034;-75
2022/07/09 10:45:23;;;;;;;2.42;1.30;;;21.40;99.50;;;;;;5005174;28;20653;-77
2022/07/09 10:47:54;;;;;;;2.28;1.25;;;21.40;99.80;;;;;;5002125;28;20060;-75
2022/07/09 10:50:20;;;;;;;3.67;1.42;;;21.50;99.60;;;;;;5007449;28;20065;-76
2022/07/09 10:52:46;;;;;;;2.85;1.40;;;21.70;99.80;;;;;;5015636;28;20114;-75
2022/07/09 10:55:11;;;;;;;1.85;1.20;;;21.80;99.60;;;;;;4994164;28;20065;-76
2022/07/09 10:57:37;;;;;;;3.22;1.45;;;21.90;98.60;;;;;;4996906;28;20038;-76
2022/07/09 11:00:03;;;;;;;2.13;1.50;;;21.90;98.80;;;;;;5007217;28;20035;-78
2022/07/09 11:02:29;;;;;;;2.40;1.38;;;21.90;98.70;;;;;;5008458;28;20464;-76
2022/07/09 11:04:55;;;;;;;2.88;1.48;;;21.90;98.50;;;;;;5009618;28;20033;-75
2022/07/09 11:07:25;;;;;;;2.40;1.30;;;22.10;98.80;;;;;;5009273;28;20026;-76
2022/07/09 11:09:52;;;;;;;2.38;1.40;;;22.50;98.30;;;;;;5008037;28;20034;-76
2022/07/09 11:12:19;;;;;;;2.33;1.33;;;23.00;97.70;;;;;;5008492;28;20029;-76
2022/07/09 11:14:50;;;;;;;1.98;1.17;;;23.50;96.00;;;;;;5013720;28;20559;-77
2022/07/09 11:17:21;;;;;;;3.15;1.30;;;23.70;95.20;;;;;;5002849;28;20034;-77
2022/07/09 11:19:48;;;;;;;2.25;1.13;;;23.80;94.50;;;;;;5007086;28;20045;-78
2022/07/09 11:22:15;;;;;;;1.88;1.10;;;24.10;93.70;;;;;;5000722;28;20057;-76
2022/07/09 11:24:41;;;;;;;2.95;1.20;;;25.70;90.30;;;;;;5002689;28;20030;-76
2022/07/09 11:27:08;;;;;;;3.05;1.52;;;25.50;88.10;;;;;;5001516;28;20034;-77
2022/07/09 11:29:35;;;;;;;2.92;1.30;;;25.00;91.10;;;;;;5005752;28;20029;-78
2022/07/09 11:32:01;;;;;;;2.60;1.30;;;24.50;91.00;;;;;;5007525;28;20053;-78
2022/07/09 11:34:27;;;;;;;2.15;1.13;;;24.40;92.20;;;;;;5011645;28;20021;-76
2022/07/09 11:36:55;;;;;;;2.80;1.30;;;24.10;92.10;;;;;;5010903;28;20042;-76
2022/07/09 11:39:22;;;;;;;2.08;1.20;;;23.80;92.90;;;;;;5004243;28;20038;-77
2022/07/09 11:41:47;;;;;;;2.33;1.58;;;23.80;93.90;;;;;;5015476;28;20037;-77
2022/07/09 11:44:30;;;;;;;2.40;1.40;;;24.00;93.30;;;;;;5012860;28;20030;-76
2022/07/09 11:47:09;;;;;;;2.55;1.50;;;23.90;93.00;;;;;;5009447;28;20120;-74
2022/07/09 11:49:39;;;;;;;2.00;1.27;;;23.80;93.60;;;;;;5012078;28;20041;-77
2022/07/09 11:52:20;;;;;;;3.75;1.52;;;23.80;93.70;;;;;;5014118;28;20519;-76
2022/07/09 11:55:04;;;;;;;2.47;1.50;;;23.60;93.60;;;;;;5027188;28;20120;-76
2022/07/09 11:57:31;;;;;;;2.10;1.20;;;23.40;94.40;;;;;;5010056;28;20034;-76
2022/07/09 11:59:57;;;;;;;2.38;1.30;;;23.30;94.80;;;;;;5008431;28;20040;-75
2022/07/09 12:02:24;;;;;;;2.15;1.25;;;23.20;95.20;;;;;;5020827;28;20041;-76
2022/07/09 12:04:50;;;;;;;2.75;1.45;;;23.10;96.10;;;;;;5018801;28;20534;-75
2022/07/09 12:07:16;;;;;;;2.30;1.38;;;23.00;95.30;;;;;;5013058;28;20030;-77
2022/07/09 12:09:42;;;;;;;2.20;1.45;;;23.30;94.70;;;;;;5011266;28;20034;-75
2022/07/09 12:12:08;;;;;;;4.28;1.50;;;23.30;94.60;;;;;;5011642;28;20029;-77
2022/07/09 12:14:34;;;;;;;2.72;1.40;;;23.50;94.90;;;;;;5011190;28;20030;-76
2022/07/09 12:16:59;;;;;;;3.15;1.48;;;23.90;93.40;;;;;;5011279;28;20061;-76
2022/07/09 12:19:25;;;;;;;2.55;1.63;;;24.20;93.60;;;;;;5010810;28;20030;-75
2022/07/09 12:21:51;;;;;;;2.20;1.30;;;24.50;90.60;;;;;;5020062;28;20043;-76
2022/07/09 12:24:16;;;;;;;2.42;1.27;;;24.50;90.30;;;;;;5010812;28;20030;-75
2022/07/09 12:26:42;;;;;;;3.47;1.40;;;24.70;90.80;;;;;;5010965;28;20037;-74
2022/07/09 12:29:08;;;;;;;2.75;1.60;;;24.80;88.70;;;;;;5011013;28;20038;-77
2022/07/09 12:31:36;;;;;;;2.38;1.33;;;25.00;89.40;;;;;;5011017;28;20049;-78
2022/07/09 12:34:03;;;;;;;2.75;1.40;;;25.20;89.00;;;;;;4997336;28;20044;-76
2022/07/09 12:36:29;;;;;;;3.42;1.60;;;25.40;87.90;;;;;;5001697;28;20492;-75
2022/07/09 12:38:55;;;;;;;2.70;1.20;;;25.50;84.30;;;;;;5007812;28;20121;-76
2022/07/09 12:41:20;;;;;;;2.20;1.25;;;25.70;82.40;;;;;;5012814;28;20073;-76
2022/07/09 12:43:46;;;;;;;2.28;1.50;;;25.80;79.70;;;;;;5023237;28;20849;-75